Latest Weather Observations for Rowley Shoals

IDW60801

Issued at 7:35 am WST Thursday 18 September 2014 (issued every 30 minutes, with the page automatically refreshed every 10 minutes)

About weather observations | Map of weather stations | Latest weather observations for WA | Other Formats
Station Details ID: 200713 Name: ROWLEY SHOALS Lat: -17.52 Lon: 118.95 Height: 0.0 m
Data from the previous 72 hours. | See also: Recent months for locations in Western Australia
Date/Time
WST
Temp
°C
App
Temp
°C
Dew
Point
Rel
Hum
%
Delta-T
°C
Wind Press
QNH
hPa
Press
MSL
hPa
Rain
since 9 am
mm
Dir
 
Spd
km/h
Gust
km/h
Spd
kts
Gust
kts
18/07:30am - - - - - WSW 11 11 6 6 1015.9 - -
18/07:00am - - - - - WSW 13 15 7 8 1015.4 1015.6 -
18/06:30am - - - - - WSW 13 15 7 8 1015.2 - -
18/06:00am - - - - - WSW 13 17 7 9 1015.0 1015.1 -
18/05:30am - - - - - SW 15 17 8 9 1014.9 - -
18/05:00am - - - - - SW 15 15 8 8 1014.7 1014.7 -
18/04:30am - - - - - SW 11 15 6 8 1014.4 - -
18/04:00am - - - - - WSW 13 15 7 8 1014.0 1014.2 -
18/03:30am - - - - - WSW 13 15 7 8 1014.0 - -
18/03:00am - - - - - WSW 13 15 7 8 1014.0 1013.9 -
18/02:30am - - - - - WSW 13 15 7 8 1014.2 - -
18/02:00am - - - - - WSW 13 15 7 8 1014.4 1014.3 -
18/01:30am - - - - - WSW 9 11 5 6 1014.5 - -
18/01:00am - - - - - W 9 11 5 6 1014.8 1014.8 -
18/12:30am - - - - - SW 7 9 4 5 1014.9 - -
18/12:00am - - - - - WSW 9 11 5 6 1015.0 1014.9 -
 
Date/Time
WST
Temp
°C
App
Temp
°C
Dew
Point
Rel
Hum
%
Delta-T
°C
Wind Press
QNH
hPa
Press
MSL
hPa
Rain
since 9 am
mm
Dir
 
Spd
km/h
Gust
km/h
Spd
kts
Gust
kts
17/11:30pm - - - - - WSW 9 11 5 6 1015.0 - -
17/11:00pm - - - - - WSW 9 11 5 6 1015.1 1015.1 -
17/10:30pm - - - - - SW 9 13 5 7 1015.2 - -
17/10:00pm - - - - - SW 7 9 4 5 1015.2 1015.2 -
17/09:30pm - - - - - S 4 6 2 3 1015.1 - -
17/09:00pm - - - - - S 6 11 3 6 1015.2 1015.2 -
17/08:30pm - - - - - S 7 9 4 5 1015.0 - -
17/08:00pm - - - - - S 4 7 2 4 1014.8 1014.8 -
17/07:30pm - - - - - SSE 2 6 1 3 1014.5 - -
17/07:00pm - - - - - SSE 0 7 0 4 1014.1 1014.2 -
17/06:30pm - - - - - S 7 9 4 5 1013.7 - -
17/06:00pm 25.6 - - - - E 4 7 2 4 1013.4 1013.6 -
17/05:30pm 25.8 - - - - CALM 0 0 0 0 1013.2 - -
17/05:00pm 25.8 - - - - SE 4 7 2 4 1012.8 1012.9 -
17/04:30pm 26.0 - - - - E 2 11 1 6 1012.4 - -
17/04:00pm 25.9 - - - - NE 7 9 4 5 1012.5 1012.5 -
17/03:30pm - - - - - NE 6 11 3 6 1012.5 - -
17/03:00pm - - - - - E 4 9 2 5 1012.6 1012.5 -
17/02:30pm - - - - - SE 7 11 4 6 1012.6 - -
17/02:00pm - - - - - SE 9 13 5 7 1012.8 1012.8 -
17/01:30pm - - - - - SE 13 13 7 7 1013.0 - -
17/01:00pm - - - - - SSE 7 15 4 8 1013.3 1013.2 -
17/12:30pm - - - - - SSW 13 19 7 10 1013.3 - -
17/12:00pm - - - - - SW 24 30 13 16 1012.9 1013.1 -
17/11:30am - - - - - SW 20 24 11 13 1013.7 - -
17/11:00am - - - - - S 13 19 7 10 1014.4 1014.0 -
17/10:30am - - - - - S 13 20 7 11 1014.5 - -
17/10:00am - - - - - SW 17 20 9 11 1014.5 1014.3 -
17/09:30am - - - - - SW 11 13 6 7 1014.7 - -
17/09:00am - - - - - SW 11 15 6 8 1014.9 1014.6 -
17/08:30am - - - - - WSW 19 22 10 12 1014.1 - -
17/08:00am - - - - - WSW 19 26 10 14 1014.7 1013.7 -
17/07:30am - - - - - W 13 15 7 8 1013.5 - -
17/07:00am - - - - - W 17 20 9 11 1012.9 1013.0 -
17/06:30am - - - - - W 19 20 10 11 1012.6 - -
17/06:00am - - - - - W 19 19 10 10 1012.2 1012.2 -
17/05:30am - - - - - W 19 22 10 12 1011.9 - -
17/05:00am - - - - - W 17 22 9 12 1011.6 1011.7 -
17/04:30am - - - - - W 19 20 10 11 1011.3 - -
17/04:00am - - - - - W 17 20 9 11 1011.1 1011.1 -
17/03:30am - - - - - W 17 20 9 11 1011.2 - -
17/03:00am - - - - - W 19 19 10 10 1011.3 1011.2 -
17/02:30am - - - - - W 15 19 8 10 1011.4 - -
17/02:00am - - - - - W 15 19 8 10 1011.4 1011.4 -
17/01:30am - - - - - W 15 17 8 9 1011.5 - -
17/01:00am - - - - - W 15 17 8 9 1011.7 1011.6 -
17/12:30am - - - - - W 13 15 7 8 1011.8 - -
17/12:00am - - - - - W 11 13 6 7 1012.1 1012.0 -
 
Date/Time
WST
Temp
°C
App
Temp
°C
Dew
Point
Rel
Hum
%
Delta-T
°C
Wind Press
QNH
hPa
Press
MSL
hPa
Rain
since 9 am
mm
Dir
 
Spd
km/h
Gust
km/h
Spd
kts
Gust
kts
16/11:30pm - - - - - W 11 13 6 7 1012.3 - -
16/11:00pm - - - - - WNW 7 11 4 6 1012.5 1012.5 -
16/10:30pm - - - - - NNW 6 7 3 4 1012.5 - -
16/10:00pm - - - - - N 7 9 4 5 1012.5 1012.5 -
16/09:30pm - - - - - N 6 11 3 6 1012.6 - -
16/09:00pm - - - - - NNW 7 7 4 4 1012.7 1012.6 -
16/08:30pm - - - - - N 7 9 4 5 1012.6 - -
16/08:00pm - - - - - N 7 9 4 5 1012.4 1012.5 -
16/07:30pm - - - - - NE 4 7 2 4 1012.1 - -
16/07:00pm - - - - - NNW 0 7 0 4 1011.7 1011.9 -
16/06:30pm - - - - - N 6 9 3 5 1011.3 - -
16/06:00pm - - - - - N 7 11 4 6 1011.0 1011.0 -
16/05:30pm - - - - - N 7 9 4 5 1010.8 - -
16/05:00pm - - - - - N 9 15 5 8 1010.4 1010.7 -
16/04:30pm - - - - - N 9 13 5 7 1010.5 - -
16/04:00pm - - - - - N 11 11 6 6 1010.3 1010.3 -
16/03:30pm - - - - - E 11 19 6 10 1009.8 - -
16/03:00pm - - - - - NE 11 22 6 12 1010.4 1010.1 -
16/02:30pm - - - - - E 11 15 6 8 1010.4 - -
16/02:00pm - - - - - E 20 22 11 12 1010.3 1010.7 -
16/01:30pm - - - - - ESE 20 20 11 11 1010.9 - -
16/01:00pm - - - - - SSW 19 24 10 13 1010.5 1010.4 -
16/12:30pm - - - - - S 17 20 9 11 1011.1 - -
16/12:00pm - - - - - S 13 22 7 12 1011.6 1011.2 -
16/11:30am - - - - - SW 22 24 12 13 1011.2 - -
16/11:00am - - - - - SW 24 26 13 14 1011.5 1011.4 -
16/10:30am - - - - - SW 22 26 12 14 1011.8 - -
16/10:00am - - - - - WSW 22 26 12 14 1012.2 1012.1 -
16/09:30am - - - - - WSW 24 28 13 15 1012.3 - -
16/09:00am - - - - - WSW 24 30 13 16 1012.4 1012.5 -
16/08:30am - - - - - SW 22 26 12 14 1012.5 - -
16/08:00am - - - - - WSW 24 26 13 14 1012.3 1012.1 -
16/07:30am - - - - - W 19 20 10 11 1012.3 - -
16/07:00am - - - - - WNW 13 17 7 9 1012.1 1012.2 -
16/06:30am - - - - - WNW 11 15 6 8 1011.7 - -
16/06:00am - - - - - WNW 13 15 7 8 1011.5 1011.6 -
16/05:30am - - - - - NW 6 9 3 5 1011.3 - -
16/05:00am - - - - - W 7 9 4 5 1011.4 1011.1 -
16/04:30am - - - - - W 9 15 5 8 1011.3 - -
16/04:00am - - - - - WNW 19 20 10 11 1010.5 1010.6 -
16/03:30am - - - - - WNW 19 20 10 11 1010.6 - -
16/03:00am - - - - - WNW 20 22 11 12 1010.5 1010.5 -
16/02:30am - - - - - WNW 19 20 10 11 1010.9 - -
16/02:00am - - - - - NW 19 20 10 11 1010.9 1010.9 -
16/01:30am - - - - - WNW 17 19 9 10 1011.0 - -
16/01:00am - - - - - NW 20 22 11 12 1011.1 1011.0 -
16/12:30am - - - - - NW 15 17 8 9 1011.4 - -
16/12:00am - - - - - NW 15 20 8 11 1011.9 1011.5 -
 
Date/Time
WST
Temp
°C
App
Temp
°C
Dew
Point
Rel
Hum
%
Delta-T
°C
Wind Press
QNH
hPa
Press
MSL
hPa
Rain
since 9 am
mm
Dir
 
Spd
km/h
Gust
km/h
Spd
kts
Gust
kts
15/11:30pm - - - - - WNW 22 26 12 14 1011.5 - -
15/11:00pm - - - - - NW 19 20 10 11 1011.6 1011.7 -
15/10:30pm - - - - - NNW 13 17 7 9 1012.0 - -
15/10:00pm - - - - - NNW 13 17 7 9 1012.2 1012.2 -
15/09:30pm - - - - - NNW 11 13 6 7 1012.3 - -
15/09:00pm - - - - - NNW 13 17 7 9 1012.3 1012.3 -
15/08:30pm - - - - - N 11 13 6 7 1012.3 - -
15/08:00pm - - - - - N 13 15 7 8 1012.2 1012.2 -
15/07:30pm - - - - - N 13 17 7 9 1011.8 - -
15/07:00pm - - - - - N 13 15 7 8 1011.6 1011.7 -
15/06:30pm - - - - - N 13 17 7 9 1011.2 - -
15/06:00pm - - - - - NNE 11 15 6 8 1011.0 1011.0 -
15/05:30pm - - - - - N 11 13 6 7 1010.7 - -
15/05:00pm - - - - - N 13 15 7 8 1010.3 1010.4 -
15/04:30pm - - - - - N 15 17 8 9 1010.2 - -
15/04:00pm - - - - - N 15 19 8 10 1010.2 1010.2 -
15/03:30pm - - - - - NNE 17 20 9 11 1010.2 - -
15/03:00pm - - - - - N 19 20 10 11 1010.4 1010.2 -
15/02:30pm - - - - - NNE 20 22 11 12 1010.3 - -
15/02:00pm - - - - - NNE 17 20 9 11 1010.5 1010.5 -
15/01:30pm - - - - - NE 17 20 9 11 1010.9 - -
15/01:00pm - - - - - NE 17 19 9 10 1011.4 1011.3 -
15/12:30pm - - - - - NE 17 20 9 11 1011.5 - -
15/12:00pm - - - - - NE 15 19 8 10 1011.4 1011.7 -
15/11:30am - - - - - NNE 13 17 7 9 1011.8 - -
15/11:00am - - - - - NE 15 17 8 9 1012.4 1012.0 -
15/10:30am - - - - - NNE 11 19 6 10 1012.6 - -
15/10:00am - - - - - N 7 - 4 - - 1012.5 -
15/09:30am - - - - - NNE 11 17 6 9 1012.8 - -
15/09:00am - - - - - WNW 6 7 3 4 1012.1 1012.2 -
15/08:30am - - - - - CALM 0 0 0 0 1012.0 - -
15/08:00am - - - - - CALM 0 4 0 2 1011.8 1011.9 -

Other Formats:

Comma delimited format used in spreadsheet applications
http://www.bom.gov.au/fwo/IDW60801/IDW60801.94207.axf

JavaScript Object Notation format (JSON) in row-major order
http://www.bom.gov.au/fwo/IDW60801/IDW60801.94207.json